Kangley, Illinois
Current Conditions -  °F | °C
As of 6:55 PM on Saturday 25 Oct 2014 (Local Time) from KPNT Reporting Station
Clear Clear  
Wind Chill: 62°   Ceiling: Unl
Heat Index: 62°   Visibility: 10mi
Dew Point: 38°   Wind: 9mph
Humidity: 42%   Direction: 290°WNW
Pressure: 29.98"   Gusts: NA
Location:  41.1182°N, 88.8294°W
Report Text: KPNT 252355Z AUTO 29008KT 10SM CLR 17/04 A2998 RMK AO2 T01660036 10240 20166
Loading
Personal Weather Stations






























Interactive Weather Map
Tropical Storm Tracking
New forecast layout! Learn more

10-Day Weather Forecast

Advertisements
Track Severe Weather on mobile